Time;durP1;ratioP1;P1;durP2;ratioP2;P2;SDS_P1;SDS_P2;PMS_P1;PMS_P2;Temp;Humidity;BMP_temperature;BMP_pressure;BME280_temperature;BME280_humidity;BME280_pressure;Samples;Min_cycle;Max_cycle;Signal;HPM_P1;HPM_P2
2022/04/18 01:52:54;;;;;;;7.80;2.88;;;;;;;3.88;78.91;94499.56;5985494;22;20080;-85
2022/04/18 01:55:19;;;;;;;5.75;2.40;;;;;;;3.58;86.27;94505.53;4977224;28;20136;-88
2022/04/18 01:57:45;;;;;;;5.32;2.67;;;;;;;3.70;84.79;94497.81;4997292;28;20034;-87
2022/04/18 02:00:10;;;;;;;9.20;3.33;;;;;;;3.49;86.38;94503.25;4976811;28;20038;-88
2022/04/18 02:02:36;;;;;;;7.50;3.25;;;;;;;3.54;84.83;94498.19;4944941;28;20116;-88
2022/04/18 02:05:02;;;;;;;10.70;2.97;;;;;;;3.54;85.92;94505.19;4960769;28;20432;-88
2022/04/18 02:07:28;;;;;;;7.93;2.75;;;;;;;3.54;85.50;94495.63;4977050;28;20027;-88
2022/04/18 02:09:55;;;;;;;7.13;2.55;;;;;;;3.60;84.50;94493.94;4979101;28;20114;-88
2022/04/18 02:12:20;;;;;;;8.50;2.83;;;;;;;3.42;89.13;94492.19;4961055;28;20457;-88
2022/04/18 02:14:46;;;;;;;5.53;3.13;;;;;;;3.27;89.59;94494.38;4980174;28;20041;-89
2022/04/18 02:17:12;;;;;;;8.57;3.20;;;;;;;3.31;90.56;94490.34;4979874;28;20049;-88
2022/04/18 02:19:37;;;;;;;5.15;2.60;;;;;;;3.15;96.03;94489.91;4980193;28;20070;-87
2022/04/18 02:22:03;;;;;;;8.52;2.85;;;;;;;3.21;92.34;94480.47;4979997;28;20424;-87
2022/04/18 02:24:28;;;;;;;4.72;2.70;;;;;;;3.19;94.80;94474.72;4996080;28;20097;-88
2022/04/18 02:26:54;;;;;;;10.48;2.88;;;;;;;3.30;90.55;94483.56;4979948;28;20023;-88
2022/04/18 02:29:20;;;;;;;10.07;3.10;;;;;;;2.95;100.00;94477.22;4997153;28;20089;-88
2022/04/18 02:34:29;;;;;;;11.07;3.97;;;;;;;3.17;93.63;94469.00;4999939;28;20038;-87
2022/04/18 02:36:55;;;;;;;9.27;2.72;;;;;;;3.23;92.63;94471.50;4983796;28;20026;-88
2022/04/18 02:39:20;;;;;;;7.10;2.80;;;;;;;3.30;91.88;94468.03;5010739;28;20040;-87
2022/04/18 02:41:46;;;;;;;5.68;2.95;;;;;;;3.42;90.68;94475.88;4986972;28;20080;-87
2022/04/18 02:44:11;;;;;;;12.75;3.50;;;;;;;3.33;92.46;94468.38;5015699;28;20026;-86
2022/04/18 02:46:36;;;;;;;7.10;2.80;;;;;;;3.05;96.15;94461.16;5018985;28;20049;-87
2022/04/18 02:49:02;;;;;;;6.63;2.58;;;;;;;3.10;93.64;94462.09;5014352;28;20029;-85
2022/04/18 02:51:27;;;;;;;9.02;2.75;;;;;;;3.25;91.05;94453.94;5002576;28;20397;-88
2022/04/18 02:53:58;;;;;;;5.18;2.70;;;;;;;3.54;86.32;94448.22;4986654;28;20029;-88
2022/04/18 02:56:24;;;;;;;4.47;2.60;;;;;;;3.57;85.96;94445.16;5003021;28;20394;-88
2022/04/18 02:58:49;;;;;;;9.38;2.88;;;;;;;3.50;87.01;94442.66;5012493;28;20029;-88
2022/04/18 03:01:15;;;;;;;7.75;2.88;;;;;;;3.57;85.24;94440.00;5019078;28;20033;-88
2022/04/18 03:03:40;;;;;;;7.93;2.83;;;;;;;3.52;84.88;94435.47;5002840;28;20025;-88
2022/04/18 03:06:05;;;;;;;8.57;3.03;;;;;;;3.57;84.11;94441.78;5014462;28;20028;-87
2022/04/18 03:08:32;;;;;;;10.02;3.00;;;;;;;3.65;82.61;94431.88;5002506;28;20057;-86
2022/04/18 03:11:04;;;;;;;6.78;3.17;;;;;;;3.79;81.49;94429.91;5018507;28;20026;-88
2022/04/18 03:13:31;;;;;;;6.70;2.80;;;;;;;3.75;81.90;94426.19;5018948;28;20026;-87
2022/04/18 03:15:57;;;;;;;8.15;2.72;;;;;;;3.57;86.20;94424.44;5018725;28;20033;-87
2022/04/18 03:18:22;;;;;;;9.48;3.08;;;;;;;3.57;84.11;94428.81;5019842;28;20052;-88
2022/04/18 03:20:48;;;;;;;4.78;2.63;;;;;;;3.78;80.02;94417.94;5002101;28;20133;-88
2022/04/18 03:23:14;;;;;;;10.50;3.25;;;;;;;3.57;82.96;94410.69;5019818;28;20021;-87
2022/04/18 03:25:39;;;;;;;5.13;2.67;;;;;;;3.20;90.23;94422.75;5019668;28;20088;-88
2022/04/18 03:28:05;;;;;;;6.07;2.85;;;;;;;3.00;90.29;94419.59;5002036;28;20107;-88
2022/04/18 03:30:30;;;;;;;4.70;2.67;;;;;;;3.01;89.26;94416.00;5017430;28;20072;-87
2022/04/18 03:32:56;;;;;;;9.77;3.10;;;;;;;2.96;93.68;94412.28;4996566;28;20038;-88
2022/04/18 03:35:21;;;;;;;6.32;2.80;;;;;;;2.83;92.23;94405.47;5019592;28;20038;-88
2022/04/18 03:40:30;;;;;;;5.68;2.60;;;;;;;3.09;86.80;94397.59;5018569;28;20037;-88
2022/04/18 03:42:56;;;;;;;6.65;2.90;;;;;;;3.42;82.11;94408.53;5019364;28;20026;-88
2022/04/18 03:45:22;;;;;;;4.75;2.60;;;;;;;3.50;79.80;94396.03;5018605;28;20026;-88
2022/04/18 03:47:47;;;;;;;7.53;2.78;;;;;;;3.54;78.45;94412.72;5001885;28;20025;-87
2022/04/18 03:50:13;;;;;;;8.50;2.75;;;;;;;3.43;79.84;94403.09;5019364;28;20022;-88
2022/04/18 03:52:38;;;;;;;10.88;3.28;;;;;;;3.44;78.95;94403.91;5001475;28;20096;-88
2022/04/18 03:55:04;;;;;;;4.90;2.65;;;;;;;3.34;79.43;94404.44;4980460;28;20035;-88
2022/04/18 03:57:30;;;;;;;9.77;2.60;;;;;;;3.07;83.40;94399.63;4964680;28;20073;-88
2022/04/18 03:59:55;;;;;;;5.28;2.53;;;;;;;2.99;85.49;94395.53;4966473;28;20030;-87
2022/04/18 04:02:21;;;;;;;6.63;2.75;;;;;;;3.11;83.11;94401.53;4982335;28;20022;-88
2022/04/18 04:04:47;;;;;;;6.80;2.90;;;;;;;3.14;81.72;94407.28;4998263;28;20053;-88
2022/04/18 04:07:13;;;;;;;6.18;2.72;;;;;;;3.02;83.20;94410.63;4982496;28;20023;-87
2022/04/18 04:09:38;;;;;;;5.82;2.70;;;;;;;2.88;85.48;94404.81;4973708;28;20034;-87
2022/04/18 04:12:05;;;;;;;5.97;2.85;;;;;;;2.75;89.33;94404.97;4962714;28;20042;-87
2022/04/18 04:14:31;;;;;;;11.95;3.45;;;;;;;2.61;90.48;94405.13;4977194;28;20065;-87
2022/04/18 04:16:57;;;;;;;5.85;2.88;;;;;;;2.43;95.60;94405.91;4965975;28;20448;-87
2022/04/18 04:19:22;;;;;;;10.80;3.10;;;;;;;2.31;100.00;94408.41;4962461;28;20038;-88
2022/04/18 04:21:48;;;;;;;5.90;3.03;;;;;;;2.46;94.83;94409.88;4962397;28;20037;-88
2022/04/18 04:24:13;;;;;;;5.82;2.75;;;;;;;2.52;93.19;94409.00;4946917;28;20027;-88
2022/04/18 04:26:39;;;;;;;5.95;3.03;;;;;;;2.54;92.64;94412.16;4946382;28;20038;-88
2022/04/18 04:29:04;;;;;;;9.15;3.00;;;;;;;2.51;93.02;94410.00;4946288;28;20038;-88
2022/04/18 04:31:30;;;;;;;11.95;2.95;;;;;;;2.32;99.29;94409.19;4979364;28;20061;-88
2022/04/18 04:33:55;;;;;;;5.63;2.70;;;;;;;2.53;91.55;94410.56;4978344;28;20037;-88
2022/04/18 04:36:21;;;;;;;10.07;3.15;;;;;;;2.56;91.23;94404.19;4962577;28;20030;-88
2022/04/18 04:38:46;;;;;;;7.90;3.45;;;;;;;2.54;92.48;94402.59;4979628;28;20463;-87
2022/04/18 04:41:12;;;;;;;7.82;2.67;;;;;;;2.61;90.29;94410.31;4978196;28;20491;-88
2022/04/18 04:43:40;;;;;;;8.00;2.92;;;;;;;2.46;94.93;94412.44;4962209;28;20022;-88
2022/04/18 04:46:06;;;;;;;8.68;3.05;;;;;;;2.50;94.57;94411.00;4961910;28;20440;-87
2022/04/18 04:48:31;;;;;;;4.85;2.60;;;;;;;2.58;93.94;94415.88;4978072;28;20037;-87
2022/04/18 04:50:57;;;;;;;7.90;2.97;;;;;;;2.65;91.77;94421.78;4979140;28;20070;-87
2022/04/18 04:53:22;;;;;;;7.25;2.63;;;;;;;2.69;91.56;94420.34;4977994;28;20379;-87
2022/04/18 04:55:48;;;;;;;8.05;2.80;;;;;;;3.05;83.33;94417.16;4961681;28;20090;-87
2022/04/18 04:58:14;;;;;;;7.63;2.47;;;;;;;3.22;81.15;94417.31;4961733;28;20110;-88
2022/04/18 05:00:40;;;;;;;6.03;2.53;;;;;;;3.46;78.92;94426.00;4977852;28;20031;-88
2022/04/18 05:03:07;;;;;;;8.27;3.25;;;;;;;3.60;75.97;94416.22;4977771;28;20493;-87
2022/04/18 05:05:32;;;;;;;8.60;3.08;;;;;;;3.87;74.29;94420.19;4960988;28;20062;-88
2022/04/18 05:07:58;;;;;;;6.38;2.60;;;;;;;3.89;73.84;94415.63;4961817;28;20432;-88
2022/04/18 05:10:24;;;;;;;10.73;3.28;;;;;;;3.93;73.29;94420.09;4978112;28;20488;-88
2022/04/18 05:12:49;;;;;;;9.65;3.28;;;;;;;4.01;73.71;94424.16;4945664;28;20088;-88
2022/04/18 05:15:15;;;;;;;10.20;3.03;;;;;;;3.97;74.49;94415.28;4961898;28;20062;-88
2022/04/18 05:17:40;;;;;;;8.10;2.70;;;;;;;4.04;74.37;94418.56;4977392;28;20037;-88
2022/04/18 05:20:06;;;;;;;8.98;3.20;;;;;;;3.90;80.06;94419.78;4988948;28;20056;-89
2022/04/18 05:22:32;;;;;;;8.40;2.80;;;;;;;4.01;76.72;94423.41;5000133;28;20022;-89
2022/04/18 05:24:58;;;;;;;6.80;3.40;;;;;;;4.03;77.62;94419.56;4983797;28;20037;-87
2022/04/18 05:27:24;;;;;;;8.13;2.95;;;;;;;4.25;75.49;94411.22;4999969;28;20022;-89
2022/04/18 05:29:49;;;;;;;4.75;3.00;;;;;;;4.33;74.02;94416.09;4999736;28;20033;-88
2022/04/18 05:32:15;;;;;;;7.85;2.65;;;;;;;4.54;71.66;94413.91;4999983;28;20139;-89
2022/04/18 05:34:41;;;;;;;6.20;2.55;;;;;;;4.74;69.41;94423.16;4983931;28;20026;-89
2022/04/18 05:37:07;;;;;;;4.20;2.50;;;;;;;4.91;67.77;94426.59;4983424;28;20080;-89
2022/04/18 05:39:33;;;;;;;8.27;2.50;;;;;;;5.09;69.38;94422.25;4999866;28;20032;-88
2022/04/18 05:41:58;;;;;;;6.28;2.78;;;;;;;5.15;67.51;94426.53;4984027;28;20521;-90
2022/04/18 05:44:24;;;;;;;8.45;2.53;;;;;;;5.29;67.31;94429.66;4999224;28;20022;-89
2022/04/18 05:46:50;;;;;;;9.30;2.83;;;;;;;5.38;65.63;94424.88;4980131;28;20037;-89
2022/04/18 05:49:16;;;;;;;7.78;2.50;;;;;;;5.42;66.39;94420.00;4980122;28;20030;-88
2022/04/18 05:51:42;;;;;;;6.25;2.72;;;;;;;5.55;64.21;94427.50;4980585;28;20076;-89
2022/04/18 05:54:08;;;;;;;6.90;2.38;;;;;;;5.62;64.75;94420.34;4995989;28;20466;-89
2022/04/18 05:56:33;;;;;;;6.00;2.25;;;;;;;5.63;65.53;94418.53;4980212;28;20027;-89
2022/04/18 05:58:59;;;;;;;6.50;2.83;;;;;;;5.83;63.39;94422.50;4980118;28;20026;-89
2022/04/18 06:01:25;;;;;;;4.60;2.40;;;;;;;5.87;64.67;94423.59;4980156;28;20083;-89
2022/04/18 06:03:51;;;;;;;6.90;2.85;;;;;;;5.91;64.49;94416.91;4996208;28;20022;-91
2022/04/18 06:06:16;;;;;;;7.63;2.70;;;;;;;5.98;61.55;94424.56;4963932;28;20144;-91
2022/04/18 06:08:42;;;;;;;7.35;2.10;;;;;;;5.95;73.77;94425.81;4968940;28;20023;-91
2022/04/18 06:11:07;;;;;;;6.25;2.42;;;;;;;6.01;66.96;94429.28;4986762;28;20026;-88
2022/04/18 06:13:33;;;;;;;10.70;2.90;;;;;;;5.94;64.53;94419.81;5002698;28;20421;-91
2022/04/18 06:15:59;;;;;;;6.85;2.42;;;;;;;6.03;62.44;94424.66;4986150;28;20443;-91
2022/04/18 06:18:24;;;;;;;10.20;3.20;;;;;;;5.96;65.26;94422.19;4970597;28;20026;-91
2022/04/18 06:20:50;;;;;;;8.45;2.55;;;;;;;6.18;65.86;94432.69;5002749;28;20113;-91
2022/04/18 06:23:18;;;;;;;5.30;2.42;;;;;;;6.42;68.01;94418.72;4986206;28;20026;-90
2022/04/18 06:25:44;;;;;;;7.53;2.47;;;;;;;6.34;70.03;94425.13;4970390;28;20343;-90
2022/04/18 06:28:10;;;;;;;5.07;2.42;;;;;;;6.39;73.33;94424.41;4986280;28;20026;-90
2022/04/18 06:30:36;;;;;;;9.45;2.85;;;;;;;6.26;68.53;94425.53;4970453;28;20032;-92
2022/04/18 06:33:01;;;;;;;5.97;2.70;;;;;;;6.54;68.16;94422.00;4986296;28;20026;-90
2022/04/18 06:35:27;;;;;;;6.28;2.30;;;;;;;6.45;66.11;94418.22;4985844;28;20444;-89
2022/04/18 06:37:52;;;;;;;6.97;2.75;;;;;;;6.50;70.54;94418.31;4986032;28;20431;-89
2022/04/18 06:40:18;;;;;;;6.32;2.63;;;;;;;6.40;73.44;94418.16;5002559;28;20026;-89
2022/04/18 06:42:43;;;;;;;9.68;2.70;;;;;;;6.46;72.17;94414.63;5002508;28;20025;-89
2022/04/18 06:45:09;;;;;;;6.25;2.30;;;;;;;6.65;67.90;94415.09;4986307;28;20026;-90
2022/04/18 06:47:34;;;;;;;7.82;2.35;;;;;;;6.70;67.48;94409.19;5001972;28;20087;-88
2022/04/18 06:50:00;;;;;;;6.72;2.53;;;;;;;6.56;60.02;94412.13;4988501;28;20030;-90
2022/04/18 06:52:25;;;;;;;3.92;2.42;;;;;;;6.86;62.98;94410.94;4966655;28;20026;-88
2022/04/18 06:54:51;;;;;;;10.23;2.83;;;;;;;6.59;59.21;94406.44;4966817;28;20027;-89
2022/04/18 06:57:16;;;;;;;6.97;3.00;;;;;;;7.08;63.21;94417.97;4966725;28;20027;-88
2022/04/18 06:59:42;;;;;;;4.90;2.17;;;;;;;7.03;59.25;94412.69;4966733;28;20031;-88
2022/04/18 07:02:08;;;;;;;8.15;2.78;;;;;;;7.14;58.67;94403.97;4966745;28;20381;-89
2022/04/18 07:04:34;;;;;;;4.82;2.33;;;;;;;7.06;57.24;94410.41;4966601;28;20027;-88
2022/04/18 07:06:59;;;;;;;7.63;2.45;;;;;;;7.08;59.44;94415.38;4966552;28;20336;-88
2022/04/18 07:09:25;;;;;;;6.97;2.47;;;;;;;7.17;64.80;94415.72;4966708;28;20026;-87
2022/04/18 07:11:51;;;;;;;5.50;2.55;;;;;;;7.54;62.60;94412.47;4966656;28;20034;-88
2022/04/18 07:14:17;;;;;;;5.22;2.40;;;;;;;7.56;61.01;94407.00;4966472;28;20391;-88
2022/04/18 07:16:43;;;;;;;7.28;2.72;;;;;;;7.45;61.07;94406.13;4950581;28;20121;-88
2022/04/18 07:19:08;;;;;;;3.85;2.40;;;;;;;7.62;59.42;94403.41;4969216;28;20087;-89
2022/04/18 07:21:34;;;;;;;4.82;2.35;;;;;;;7.89;57.73;94405.19;4979636;28;20424;-90
2022/04/18 07:23:59;;;;;;;5.68;2.63;;;;;;;7.83;58.10;94395.75;4982810;28;20184;-90
2022/04/18 07:26:25;;;;;;;5.50;2.00;;;;;;;7.86;55.43;94396.03;4982412;28;20030;-89
2022/04/18 07:28:50;;;;;;;7.43;2.88;;;;;;;7.96;54.98;94400.56;4967211;28;20065;-90
2022/04/18 07:31:16;;;;;;;3.85;2.30;;;;;;;7.77;55.60;94392.31;4999243;28;20033;-90
2022/04/18 07:33:42;;;;;;;11.70;3.00;;;;;;;7.70;56.62;94396.97;4968816;28;20328;-89
2022/04/18 07:36:07;;;;;;;4.38;2.45;;;;;;;7.90;56.49;94393.72;4959457;28;20109;-90
2022/04/18 07:38:51;;;;;;;9.25;2.47;;;;;;;8.18;54.81;94397.84;4963406;28;20436;-90
2022/04/18 07:41:25;;;;;;;5.65;2.40;;;;;;;7.98;54.67;94393.25;4995131;28;20093;-88
2022/04/18 07:43:52;;;;;;;4.82;2.22;;;;;;;8.05;56.00;94393.84;4982495;28;20092;-89
2022/04/18 07:46:18;;;;;;;6.55;2.28;;;;;;;8.02;55.47;94388.34;4999752;28;20339;-88
2022/04/18 07:48:45;;;;;;;11.75;2.63;;;;;;;8.01;54.63;94384.94;4966917;28;20443;-88
2022/04/18 07:53:54;;;;;;;11.82;2.50;;;;;;;7.92;56.06;94384.59;4987370;28;20033;-87
2022/04/18 07:56:20;;;;;;;9.80;2.22;;;;;;;7.82;55.73;94386.34;4966212;28;20030;-87
2022/04/18 07:58:46;;;;;;;5.85;2.58;;;;;;;8.24;54.95;94388.22;4999390;28;20034;-88
2022/04/18 08:01:11;;;;;;;12.15;5.07;;;;;;;8.31;54.96;94388.78;4982181;28;20022;-88
2022/04/18 08:03:37;;;;;;;8.18;2.95;;;;;;;8.38;53.99;94388.56;4982193;28;20030;-88
2022/04/18 08:06:03;;;;;;;5.65;2.53;;;;;;;8.51;52.17;94387.38;4981742;28;20127;-88
2022/04/18 08:08:29;;;;;;;5.38;2.65;;;;;;;8.62;54.75;94383.78;4966215;28;20026;-87
2022/04/18 08:10:56;;;;;;;7.10;2.45;;;;;;;8.27;53.58;94379.13;4997929;28;20026;-86
2022/04/18 08:13:21;;;;;;;7.80;2.35;;;;;;;8.06;55.44;94374.53;4981614;28;20026;-88
2022/04/18 08:15:47;;;;;;;7.40;2.40;;;;;;;7.91;54.34;94375.22;4998250;28;20041;-90
2022/04/18 08:18:12;;;;;;;4.93;2.25;;;;;;;8.46;57.73;94389.91;4981544;28;20093;-89
2022/04/18 08:20:37;;;;;;;6.03;2.17;;;;;;;8.68;54.16;94381.19;4981578;28;20026;-90
2022/04/18 08:23:03;;;;;;;224.25;99.45;;;;;;;8.68;53.86;94381.19;4997463;28;20448;-88
2022/04/18 08:25:29;;;;;;;42.22;16.33;;;;;;;8.74;52.60;94375.72;4977614;28;20022;-88
2022/04/18 08:27:55;;;;;;;1870.18;631.92;;;;;;;8.84;55.24;94379.44;4985356;28;20211;-89
2022/04/18 08:30:21;;;;;;;881.25;243.80;;;;;;;8.74;51.70;94372.31;4984778;28;20040;-89
2022/04/18 08:32:46;;;;;;;662.92;168.82;;;;;;;8.96;54.62;94371.38;5018480;28;20026;-90
2022/04/18 08:35:12;;;;;;;577.35;172.05;;;;;;;9.10;51.38;94377.69;4984966;28;20033;-88
2022/04/18 08:37:37;;;;;;;9.00;2.75;;;;;;;8.92;51.87;94373.69;4984786;28;20029;-89
2022/04/18 08:40:05;;;;;;;14.25;4.93;;;;;;;9.22;52.28;94377.44;5001165;28;20030;-89
2022/04/18 08:42:34;;;;;;;7.80;2.90;;;;;;;9.20;49.94;94379.53;4984777;28;20035;-89
2022/04/18 08:45:04;;;;;;;8.88;3.30;;;;;;;8.88;51.70;94376.03;5000991;28;20374;-89
2022/04/18 08:52:58;;;;;;;6.85;2.92;;;;;;;9.20;50.18;94379.53;5002952;28;20091;-89
2022/04/18 08:55:23;;;;;;;8.10;2.50;;;;;;;8.77;49.60;94366.59;5001181;28;20443;-88
2022/04/18 08:57:49;;;;;;;6.05;2.58;;;;;;;8.85;51.76;94371.31;4983951;28;20030;-88
2022/04/18 09:00:14;;;;;;;12.27;2.83;;;;;;;8.89;51.26;94364.56;4984624;28;20037;-88
2022/04/18 09:02:40;;;;;;;4.80;2.75;;;;;;;8.62;53.16;94362.88;4981135;28;20030;-88
2022/04/18 09:05:10;;;;;;;4.55;2.30;;;;;;;9.24;52.20;94364.13;4980975;28;20049;-88
2022/04/18 09:07:36;;;;;;;5.22;2.47;;;;;;;9.16;53.10;94349.72;4977552;28;20331;-88
2022/04/18 09:10:02;;;;;;;4.35;2.55;;;;;;;9.40;51.72;94355.25;4978857;28;20105;-88
2022/04/18 09:12:28;;;;;;;5.05;2.70;;;;;;;9.52;52.20;94354.22;4961463;28;20057;-88
2022/04/18 09:14:53;;;;;;;5.32;2.40;;;;;;;9.50;52.37;94353.72;4961502;28;20036;-89
2022/04/18 09:17:33;;;;;;;8.52;2.83;;;;;;;9.76;52.46;94352.69;4961304;28;20344;-89
2022/04/18 09:20:10;;;;;;;8.65;2.30;;;;;;;9.74;51.27;94353.97;4961512;28;20038;-88
2022/04/18 09:22:43;;;;;;;5.45;2.20;;;;;;;9.77;50.12;94350.84;4945821;28;20027;-89
2022/04/18 09:25:21;;;;;;;8.40;2.53;;;;;;;9.86;54.17;94351.88;4952328;28;20022;-89
2022/04/18 09:27:54;;;;;;;9.70;2.90;;;;;;;9.48;52.33;94351.34;4964600;28;20335;-88
2022/04/18 09:30:20;;;;;;;7.03;2.65;;;;;;;10.05;52.72;94348.72;4980800;28;20084;-89
2022/04/18 09:33:01;;;;;;;7.70;2.90;;;;;;;10.18;52.47;94342.16;4980980;28;20038;-88
2022/04/18 09:35:30;;;;;;;5.57;2.30;;;;;;;10.54;52.68;94323.75;4980867;28;20034;-88
2022/04/18 09:38:05;;;;;;;7.20;2.38;;;;;;;10.37;52.21;94323.28;4980511;28;20121;-88
2022/04/18 09:40:32;;;;;;;5.50;2.30;;;;;;;10.18;51.83;94334.28;4980776;28;20041;-88
2022/04/18 09:42:57;;;;;;;4.70;2.50;;;;;;;10.54;50.74;94326.38;4963785;28;20395;-88
2022/04/18 09:45:23;;;;;;;8.23;3.40;;;;;;;10.69;52.48;94327.38;4964783;28;20117;-88
2022/04/18 09:47:57;;;;;;;7.40;2.30;;;;;;;10.62;51.76;94326.91;4973182;28;20038;-88
2022/04/18 09:53:17;;;;;;;7.47;3.33;;;;;;;9.92;53.23;94320.47;4982756;28;20065;-88
2022/04/18 09:55:47;;;;;;;10.32;2.53;;;;;;;10.13;53.34;94310.75;4996355;28;20030;-88
2022/04/18 09:58:13;;;;;;;8.63;2.38;;;;;;;10.80;51.50;94309.75;4964526;28;20037;-88
2022/04/18 10:00:39;;;;;;;8.18;2.78;;;;;;;10.38;50.05;94303.88;4983804;28;20029;-88
2022/04/18 10:03:05;;;;;;;7.13;2.88;;;;;;;10.85;52.49;94300.03;5017448;28;20029;-88
2022/04/18 10:05:30;;;;;;;7.63;2.65;;;;;;;11.00;51.43;94301.81;5017063;28;20026;-87
2022/04/18 10:08:03;;;;;;;11.73;3.38;;;;;;;10.97;51.18;94296.31;5010143;28;20462;-88
2022/04/18 10:10:35;;;;;;;5.68;2.53;;;;;;;10.66;52.17;94288.63;5000681;28;20028;-88
2022/04/18 10:13:03;;;;;;;7.63;2.40;;;;;;;10.82;51.94;94294.56;4971250;28;20400;-87
2022/04/18 10:15:29;;;;;;;4.65;2.88;;;;;;;10.93;52.28;94287.44;4977020;28;20047;-88
2022/04/18 10:17:55;;;;;;;4.95;2.83;;;;;;;10.72;51.86;94284.91;4974664;28;20062;-88
2022/04/18 10:20:49;;;;;;;11.27;3.10;;;;;;;10.81;50.48;94285.91;4974001;28;20030;-89
2022/04/18 10:23:31;;;;;;;6.50;2.38;;;;;;;11.23;51.17;94280.44;4977636;28;20023;-89
2022/04/18 10:26:55;;;;;;;9.68;2.72;;;;;;;11.45;49.94;94287.88;4976863;28;20031;-90
2022/04/18 10:29:43;;;;;;;5.80;2.55;;;;;;;11.27;47.38;94271.75;4995803;28;20030;-89
2022/04/18 10:32:09;;;;;;;4.35;2.35;;;;;;;11.87;54.62;94278.59;4957671;28;20129;-88
2022/04/18 10:34:35;;;;;;;7.05;2.63;;;;;;;11.45;49.88;94265.03;4976428;28;20451;-89
2022/04/18 10:37:03;;;;;;;8.43;2.75;;;;;;;11.07;52.15;94259.56;4976647;28;20098;-88
2022/04/18 10:39:38;;;;;;;5.45;2.42;;;;;;;10.74;50.66;94254.78;4977723;28;20058;-88
2022/04/18 10:42:27;;;;;;;3.50;2.30;;;;;;;11.42;51.43;94256.97;4964407;28;20027;-88
2022/04/18 10:45:06;;;;;;;6.55;2.75;;;;;;;11.49;51.14;94262.66;4944761;28;20305;-88
2022/04/18 10:47:55;;;;;;;8.25;2.63;;;;;;;11.79;49.32;94246.94;4960322;28;20031;-88
2022/04/18 10:50:22;;;;;;;7.93;2.75;;;;;;;11.93;50.93;94254.91;4960587;28;20728;-88
2022/04/18 10:53:08;;;;;;;7.63;2.95;;;;;;;11.96;49.37;94254.34;4960225;28;20031;-88
2022/04/18 10:55:33;;;;;;;7.88;2.88;;;;;;;11.32;49.36;94242.06;4980924;28;20371;-88
2022/04/18 10:58:16;;;;;;;9.65;2.42;;;;;;;11.92;51.16;94243.66;4963926;28;20031;-88
2022/04/18 11:00:48;;;;;;;4.93;2.80;;;;;;;12.18;51.19;94245.25;4947500;28;20062;-88
2022/04/18 11:03:13;;;;;;;5.10;2.80;;;;;;;11.64;48.05;94234.72;4964242;28;20026;-89
2022/04/18 11:05:38;;;;;;;4.80;2.45;;;;;;;12.26;51.10;94240.16;4979479;28;20031;-88
2022/04/18 11:08:22;;;;;;;5.00;2.80;;;;;;;12.42;49.09;94227.63;4980726;28;20041;-88
2022/04/18 11:10:48;;;;;;;6.55;2.40;;;;;;;12.77;48.00;94234.53;4993888;28;20041;-88
2022/04/18 11:13:14;;;;;;;6.93;2.70;;;;;;;12.76;46.62;94223.22;4982838;28;20030;-88
2022/04/18 11:15:39;;;;;;;7.47;2.50;;;;;;;12.58;46.75;94222.94;4992465;28;20041;-86
2022/04/18 11:18:09;;;;;;;9.05;2.90;;;;;;;12.96;46.13;94221.41;4982748;28;20034;-87
2022/04/18 11:20:36;;;;;;;6.82;2.95;;;;;;;13.17;45.76;94223.72;4999087;28;20037;-87
2022/04/18 11:23:30;;;;;;;7.90;2.90;;;;;;;13.05;44.72;94218.91;4982858;28;20026;-86
2022/04/18 11:26:02;;;;;;;;;;;;;;;13.03;47.87;94213.91;4968017;28;20462;-86
2022/04/18 11:28:33;;;;;;;6.75;2.85;;;;;;;12.76;45.84;94214.56;4987499;28;19925;-81
2022/04/18 11:30:59;;;;;;;9.77;3.40;;;;;;;12.27;46.96;94207.56;4961035;28;20030;-82
2022/04/18 11:33:25;;;;;;;7.53;2.38;;;;;;;12.98;48.45;94212.16;4966561;28;20041;-82
2022/04/18 11:35:51;;;;;;;8.73;2.83;;;;;;;13.34;47.08;94210.84;4987467;28;20093;-81
2022/04/18 11:38:18;;;;;;;8.25;2.72;;;;;;;13.25;48.00;94213.31;4971876;28;20031;-82
2022/04/18 11:40:44;;;;;;;7.22;3.20;;;;;;;12.97;46.15;94209.81;4970967;28;20057;-81
2022/04/18 11:43:11;;;;;;;7.53;2.85;;;;;;;13.18;45.67;94222.63;4992434;28;20022;-81
2022/04/18 11:45:37;;;;;;;5.35;2.83;;;;;;;12.78;47.76;94207.97;4981158;28;20038;-81
2022/04/18 11:48:04;;;;;;;9.25;2.80;;;;;;;13.22;47.07;94198.09;4971074;28;20336;-82
2022/04/18 11:50:30;;;;;;;5.93;2.88;;;;;;;13.43;47.58;94195.94;4968321;28;20078;-81
2022/04/18 11:53:10;;;;;;;5.38;2.88;;;;;;;13.46;46.71;94191.19;4964096;28;20448;-83
2022/04/18 11:55:43;;;;;;;7.10;2.70;;;;;;;13.48;46.65;94189.81;4977579;28;20048;-82
2022/04/18 11:58:10;;;;;;;4.70;2.58;;;;;;;13.36;45.33;94178.94;4950359;28;20085;-83
2022/04/18 12:08:49;;;;;;;5.88;2.58;;;;;;;13.79;44.95;94177.97;4972121;28;20034;-83
2022/04/18 12:11:15;;;;;;;6.43;3.03;;;;;;;14.19;48.54;94172.22;4983849;28;20030;-82
2022/04/18 12:13:47;;;;;;;10.57;3.97;;;;;;;14.30;47.35;94170.16;4987349;28;20058;-83
2022/04/18 12:16:16;;;;;;;9.23;5.13;;;;;;;13.71;47.93;94156.50;4962940;28;20039;-81
2022/04/18 12:18:42;;;;;;;7.15;3.17;;;;;;;14.24;47.40;94156.28;4989517;28;20114;-82
2022/04/18 12:21:08;;;;;;;6.75;2.83;;;;;;;13.83;45.73;94158.66;4997804;28;20446;-82
2022/04/18 12:23:33;;;;;;;5.28;2.38;;;;;;;13.91;46.12;94148.53;4977877;28;20125;-82
2022/04/18 12:26:01;;;;;;;6.70;2.92;;;;;;;14.10;45.42;94158.97;4986274;28;20037;-83
2022/04/18 12:28:28;;;;;;;4.75;2.83;;;;;;;14.34;45.65;94152.66;4998350;28;20439;-82
2022/04/18 12:31:05;;;;;;;;;;;;;;;;;;;;;
2022/04/18 12:33:31;;;;;;;4.35;2.20;;;;;;;14.46;46.85;94139.75;5002387;28;20028;-87
2022/04/18 12:35:57;;;;;;;4.47;2.83;;;;;;;14.44;46.80;94144.53;5001390;28;20121;-85
2022/04/18 12:38:39;;;;;;;5.78;2.50;;;;;;;14.64;47.14;94126.75;5016869;28;20026;-87
2022/04/18 12:41:04;;;;;;;5.68;2.45;;;;;;;14.56;44.61;94136.91;4985476;28;20454;-86
2022/04/18 12:43:33;;;;;;;8.40;2.63;;;;;;;14.39;47.39;94134.88;4990134;28;20014;-85
2022/04/18 12:46:07;;;;;;;5.30;2.65;;;;;;;14.63;45.21;94135.69;5011644;28;20029;-86
2022/04/18 12:48:35;;;;;;;6.90;2.40;;;;;;;14.77;44.50;94130.41;5000887;28;20029;-86
2022/04/18 12:51:03;;;;;;;12.57;3.03;;;;;;;14.40;44.19;94122.50;5000852;28;20030;-86
2022/04/18 12:53:51;;;;;;;7.60;3.33;;;;;;;13.65;45.45;94118.22;5000709;28;20084;-86
2022/04/18 12:56:27;;;;;;;8.07;3.08;;;;;;;13.47;45.00;94121.69;5013943;28;20439;-86
2022/04/18 12:59:06;;;;;;;6.25;2.55;;;;;;;14.57;45.68;94109.47;5016072;28;20028;-86
2022/04/18 13:01:34;;;;;;;6.45;3.03;;;;;;;14.32;44.58;94108.19;4994875;28;20447;-82
2022/04/18 13:04:03;;;;;;;7.38;2.55;;;;;;;14.48;44.57;94113.88;4976738;28;20030;-82
2022/04/18 13:06:31;;;;;;;5.00;2.70;;;;;;;14.82;44.65;94104.72;4964500;28;20128;-82
2022/04/18 13:09:05;;;;;;;7.18;2.75;;;;;;;15.17;43.63;94106.00;4964735;28;20443;-82
2022/04/18 13:11:42;;;;;;;5.20;2.95;;;;;;;14.88;42.83;94108.00;4964630;28;20026;-81
2022/04/18 13:14:09;;;;;;;10.18;2.92;;;;;;;15.34;44.08;94116.63;4980457;28;20113;-84
2022/04/18 13:16:35;;;;;;;8.93;2.97;;;;;;;14.59;44.14;94097.84;4997543;28;20117;-81
2022/04/18 13:19:11;;;;;;;5.78;2.55;;;;;;;15.35;45.17;94097.09;4963944;28;20129;-82
2022/04/18 13:21:38;;;;;;;5.88;3.25;;;;;;;15.10;42.80;94104.56;4980906;28;20026;-82
2022/04/18 13:24:04;;;;;;;11.23;2.70;;;;;;;14.57;43.61;94101.56;4964372;28;20092;-82
2022/04/18 13:26:31;;;;;;;10.45;2.65;;;;;;;15.15;43.87;94095.75;4964168;28;20026;-83
2022/04/18 13:28:57;;;;;;;7.72;3.08;;;;;;;15.14;42.97;94088.91;4964370;28;20037;-82
2022/04/18 13:31:23;;;;;;;6.75;2.60;;;;;;;15.23;44.06;94089.72;4980286;28;20026;-82
2022/04/18 13:33:49;;;;;;;6.95;2.80;;;;;;;15.44;42.69;94076.00;4961931;28;20034;-82
2022/04/18 13:39:02;;;;;;;4.00;2.30;;;;;;;15.65;42.64;94078.88;4991056;28;20073;-82
2022/04/18 13:41:27;;;;;;;9.82;2.90;;;;;;;15.42;43.24;94083.44;4996522;28;20026;-82
2022/04/18 13:43:54;;;;;;;5.95;2.97;;;;;;;15.75;41.98;94072.53;4990653;28;20459;-83
2022/04/18 13:46:19;;;;;;;10.00;2.83;;;;;;;16.59;46.73;94073.56;4961960;28;20038;-82
2022/04/18 13:48:48;;;;;;;9.73;2.90;;;;;;;16.63;42.08;94071.84;4959165;28;20038;-82
2022/04/18 13:51:18;;;;;;;4.90;2.72;;;;;;;16.66;40.07;94066.72;4974808;28;20069;-82
2022/04/18 13:53:44;;;;;;;7.50;3.00;;;;;;;16.42;40.47;94066.41;4962502;28;20031;-82
2022/04/18 13:56:10;;;;;;;4.55;2.47;;;;;;;17.27;41.85;94065.06;4972573;28;20113;-82
2022/04/18 13:58:35;;;;;;;7.70;3.00;;;;;;;17.03;41.41;94055.78;4991821;28;20029;-82
2022/04/18 14:01:01;;;;;;;4.65;2.65;;;;;;;16.78;40.39;94066.06;4987963;28;20347;-82